PAUNPASC

Guest
Details From PAUN - Unalakleet
To PASC - Deadhorse
Flight Number -
Tags Generated
Created
Modified
Stats Distance 474 nm / 879 km
Max Altitude 0 ft / 0 m
Waypoints 4
Social Downloads 3
Likes 0
Share VATSIM

Download

Looking for another format? Having issues loading an existing format? Contact us
Advertisement - Login to hide

Notes

Generated

Route

PAUN VIGUC R0595 PASC

ID Type Via Altitude Latitude Longitude Leg Dist Tot Dist Heading (true) Name
O PAUN APT - 0 ft / 0 m 63.88345˚ -160.79903˚ - 0 nm - -
VIGUC FIX - 0 ft / 0 m 66.80578˚ -156.26358˚ 208 nm 208 nm 31° / 35° -
R0595 FIX - 0 ft / 0 m 70.19246˚ -148.49046˚ 265 nm 474 nm 37° / 44° -
O PASC APT - 0 ft / 0 m 70.19246˚ -148.49046˚ 0 nm 474 nm 0° / 180° -

Altitude Profile

Advertisement - Login to hide

Weather


0- 5 10 15 20 25 30 35+ Temperature / ° C

Clouds and Precipitation
Forecast for 2018-05-22 12:00 UTC. Updated 3 hours ago

Ground ~20,000 ft ~40,000 ft Winds

PAUN

Details ICAO PAUN (UNK)
Name Unalakleet
Region USA (Alaska)
Timezone America/Anchorage (UTC-8.0)
Stats Elevation 68 ft / 21 m (AMSL)
Location 63.886590° -160.796931°
Runways 2
Magnetic Variation 12.025° E

METAR

PAUN 221356Z AUTO 00000KT 10SM BKN085 05/03 A2961 RMK AO2 SLP032 T00500028

Decode

TAF

PAUN 221131Z 2212/2312 VRB06KT P6SM FEW070 BKN100 FM222100 VRB06KT P6SM FEW050 SCT100

Decode

Departure Runways

ID Width Length Bearing (true) Bearing (mag) Surface Threshold Offset Overrun Length
15 151 ft / 46 m 5,990 ft / 1,826 m 164.15° 152.12° Asphalt 0 ft / 0 m 499 ft / 152 m
26 79 ft / 24 m 1,993 ft / 608 m 278.43° 266.40° Asphalt 0 ft / 0 m 0 ft / 0 m
33 151 ft / 46 m 5,990 ft / 1,826 m 344.16° 332.13° Asphalt 0 ft / 0 m 0 ft / 0 m
8 79 ft / 24 m 1,993 ft / 608 m 98.42° 86.39° Asphalt 0 ft / 0 m 0 ft / 0 m

PASC

Details ICAO PASC (SCC)
Name DEADHORSE
Region USA (Alaska)
Timezone America/Anchorage (UTC-8.0)
Stats Elevation 64 ft / 20 m (AMSL)
Location 70.194754° -148.465162°
Runways 1
Magnetic Variation 17.747° E

METAR

PASC 221353Z 07016KT 7SM OVC006 M02/M03 A2976

Decode

TAF

TAF PASC 221131Z 2212/2312 07018KT P6SM OVC007 FM221500 07018KT 4SM -SHSN BR OVC007 FM222100 07018KT 6SM -SHSNRA BR OVC007

Decode

Destination Runways

ID Width Length Bearing (true) Bearing (mag) Surface Threshold Offset Overrun Length
04 151 ft / 46 m 6,506 ft / 1,983 m 74.98° 57.23° Asphalt 0 ft / 0 m 0 ft / 0 m
22 151 ft / 46 m 6,506 ft / 1,983 m 255.03° 237.28° Asphalt 0 ft / 0 m 0 ft / 0 m

Approach Navaids

Runway Type Ident Frequency Range Bearing (true) Bearing (mag) Slope Elevation
04 Localiser ISCC 109.30 MHz 18 nm / 33 km 75.03° 57.29° - 64 ft / 20 m (AMSL)
04 Glidescope ISCC 109.30 MHz 10 nm / 19 km 75.00° 57.26° 3.00° 52 ft / 16 m (AMSL)